createdAt,value
2022-10-24T00:01:11.082Z,-28.3
2022-10-24T00:03:12.764Z,-28.4
2022-10-24T00:05:13.865Z,-28.3
2022-10-24T00:07:15.471Z,-28.2
2022-10-24T00:09:17.111Z,-28.4
2022-10-24T00:11:18.728Z,-28.2
2022-10-24T00:13:20.023Z,-28.4
2022-10-24T00:15:20.938Z,-28.2
2022-10-24T00:17:22.774Z,-28
2022-10-24T00:19:24.279Z,-28.2
2022-10-24T00:21:25.168Z,-28
2022-10-24T00:23:26.557Z,-28.4
2022-10-24T00:25:27.568Z,-28.2
2022-10-24T00:27:28.650Z,-28.3
2022-10-24T00:29:30.406Z,-28.2
2022-10-24T00:31:32.233Z,-28.3
2022-10-24T00:33:33.678Z,-28
2022-10-24T00:35:34.690Z,-28.3
2022-10-24T00:37:35.574Z,-28.5
2022-10-24T00:39:37.229Z,-27.9
2022-10-24T00:41:38.769Z,-27.9
2022-10-24T00:43:40.211Z,-28.3
2022-10-24T00:45:41.401Z,-28.2
2022-10-24T00:47:43.285Z,-28.3
2022-10-24T00:49:44.958Z,-28.2
2022-10-24T00:51:46.697Z,-28.4
2022-10-24T00:53:48.017Z,-28.3
2022-10-24T00:55:49.158Z,-28.4
2022-10-24T00:57:50.211Z,-28.4
2022-10-24T00:59:51.625Z,-28.3
2022-10-24T01:01:52.567Z,-28.1
2022-10-24T01:03:54.259Z,-28.3
2022-10-24T01:05:55.927Z,-28.3
2022-10-24T01:09:58.957Z,-28.2
2022-10-24T01:11:59.965Z,-28.2
2022-10-24T01:14:01.535Z,-28.3
2022-10-24T01:16:03.365Z,-28
2022-10-24T01:18:05.124Z,-28.3
2022-10-24T01:20:06.061Z,-28.2
2022-10-24T01:22:07.140Z,-28.5
2022-10-24T01:26:10.225Z,-28.3
2022-10-24T01:28:11.179Z,-28
2022-10-24T01:30:12.667Z,-28.3
2022-10-24T01:32:13.795Z,-28.4
2022-10-24T01:34:15.565Z,-28.2
2022-10-24T01:36:17.312Z,-28.3
2022-10-24T01:38:18.471Z,-28.5
2022-10-24T01:42:20.753Z,-28.4
2022-10-24T01:44:21.881Z,-28
2022-10-24T01:46:23.181Z,-28.3
2022-10-24T01:48:25.007Z,-28.2
2022-10-24T01:50:26.875Z,-28.4
2022-10-24T01:52:27.960Z,-28.2
2022-10-24T01:54:29.419Z,-28.5
2022-10-24T01:56:31.219Z,-28.2
2022-10-24T01:58:32.324Z,-28.2
2022-10-24T02:00:33.644Z,-28.3
2022-10-24T02:02:34.627Z,-28.4
2022-10-24T02:04:35.576Z,-28.3
2022-10-24T02:06:36.683Z,-28
2022-10-24T02:08:38.266Z,-28.3
2022-10-24T02:10:39.206Z,-28.3
2022-10-24T02:14:41.204Z,-28.4
2022-10-24T02:16:43.058Z,-28.3
2022-10-24T02:18:43.968Z,-28.3
2022-10-24T02:20:45.499Z,-28.4
2022-10-24T02:22:46.571Z,-28.4
2022-10-24T02:26:49.321Z,-28.3
2022-10-24T02:28:50.938Z,-28.5
2022-10-24T02:30:52.646Z,-28
2022-10-24T02:32:53.599Z,-28
2022-10-24T02:34:55.250Z,-28.3
2022-10-24T02:36:57.038Z,-28.4
2022-10-24T02:38:58.217Z,-28.2
2022-10-24T02:40:59.502Z,-28.1
2022-10-24T02:43:00.802Z,-28.3
2022-10-24T02:45:02.084Z,-28.2
2022-10-24T02:47:03.198Z,-28.3
2022-10-24T02:49:04.781Z,-28.3
2022-10-24T02:51:06.491Z,-28.3
2022-10-24T02:53:08.001Z,-28.1
2022-10-24T02:55:09.657Z,-28
2022-10-24T02:57:10.605Z,-28
2022-10-24T02:59:12.397Z,-28.2
2022-10-24T03:03:15.546Z,-28.4
2022-10-24T03:05:16.835Z,-28.4
2022-10-24T03:07:18.508Z,-28.2
2022-10-24T03:09:20.012Z,-27.9
2022-10-24T03:13:22.803Z,-28.5
2022-10-24T03:15:24.347Z,-28.4
2022-10-24T03:17:25.917Z,-28.1
2022-10-24T03:19:27.126Z,-28.3
2022-10-24T03:25:31.842Z,-28.4
2022-10-24T03:27:32.859Z,-28
2022-10-24T03:29:34.521Z,-28
2022-10-24T03:31:35.617Z,-28.5
2022-10-24T03:33:37.243Z,-28.4
2022-10-24T03:35:38.729Z,-28.4
2022-10-24T03:39:40.855Z,-28.2
2022-10-24T03:41:42.196Z,-28.4
2022-10-24T03:43:44.006Z,-28.3
2022-10-24T03:45:45.628Z,-28.4
2022-10-24T03:51:50.084Z,-28.2
2022-10-24T03:53:51.550Z,-28.2
2022-10-24T03:55:53.013Z,-28.4
2022-10-24T03:57:54.897Z,-28.3
2022-10-24T03:59:55.878Z,-28.3
2022-10-24T04:01:57.208Z,-28.3
2022-10-24T04:06:00.001Z,-28.3
2022-10-24T04:08:01.461Z,-28.4
2022-10-24T04:10:02.508Z,-28.2
2022-10-24T04:12:04.406Z,-28.2
2022-10-24T04:16:07.032Z,-28.2
2022-10-24T04:18:08.801Z,-28.2
2022-10-24T04:22:11.470Z,-28.2
2022-10-24T04:24:12.932Z,-28
2022-10-24T04:26:14.667Z,-28.3
2022-10-24T04:28:16.472Z,-28.5
2022-10-24T04:34:20.948Z,-28.3
2022-10-24T04:36:22.249Z,-28.2
2022-10-24T04:38:23.972Z,-28.3
2022-10-24T04:40:25.021Z,-28.2
2022-10-24T04:42:26.580Z,-28.2
2022-10-24T04:44:28.347Z,-28.3
2022-10-24T04:48:30.473Z,-28.2
2022-10-24T04:50:31.925Z,-28.2
2022-10-24T04:52:42.201Z,-28.2
2022-10-24T04:54:35.031Z,-28.2
2022-10-24T04:56:36.034Z,-28
2022-10-24T04:58:37.149Z,-28.4
2022-10-24T05:00:38.243Z,-28.2
2022-10-24T05:02:39.696Z,-28.2
2022-10-24T05:04:40.769Z,-28.3
2022-10-24T05:06:44.141Z,-28.2
2022-10-24T05:08:43.598Z,-27.9
2022-10-24T05:10:44.988Z,-28.3
2022-10-24T05:12:47.248Z,-28.1
2022-10-24T05:14:48.646Z,-28.3
2022-10-24T05:16:49.932Z,-28.2
2022-10-24T05:18:50.850Z,-28.5
2022-10-24T05:20:52.646Z,-28.3
2022-10-24T05:22:53.982Z,-28.2
2022-10-24T05:24:55.405Z,-28.4
2022-10-24T05:26:57.290Z,-28.2
2022-10-24T05:33:00.930Z,-28.2
2022-10-24T05:37:03.753Z,-28.5
2022-10-24T05:39:04.700Z,-27.9
2022-10-24T05:41:05.985Z,-28.3
2022-10-24T05:43:07.430Z,-28
2022-10-24T05:45:09.214Z,-28.3
2022-10-24T05:47:11.108Z,-28.3
2022-10-24T05:49:12.378Z,-28.2
2022-10-24T05:51:14.179Z,-28.5
2022-10-24T05:53:15.974Z,-28.3
2022-10-24T05:55:18.412Z,-28.4
2022-10-24T05:57:18.895Z,-28.5
2022-10-24T05:59:20.302Z,-28.4
2022-10-24T06:03:22.853Z,-28
2022-10-24T06:04:06.878Z,-28.2
2022-10-24T06:06:07.686Z,-28.3
2022-10-24T06:08:08.699Z,-28.2
2022-10-24T06:10:09.667Z,-28.1
2022-10-24T06:12:10.729Z,-28.2
2022-10-24T06:14:11.845Z,-28.3
2022-10-24T06:16:12.813Z,-28.3
2022-10-24T06:20:16.045Z,-28.1
2022-10-24T06:22:17.752Z,-28.3
2022-10-24T06:24:19.334Z,-28.2
2022-10-24T06:26:21.717Z,-28.3
2022-10-24T06:28:22.169Z,-28.3
2022-10-24T06:30:23.908Z,-28
2022-10-24T06:34:26.153Z,-28.1
2022-10-24T06:36:29.280Z,-28.3
2022-10-24T06:40:30.268Z,-28.2
2022-10-24T06:42:31.307Z,-28.1
2022-10-24T06:44:32.422Z,-28.4
2022-10-24T06:46:34.168Z,-28.3
2022-10-24T06:48:35.575Z,-28.4
2022-10-24T06:50:36.489Z,-28.3
2022-10-24T06:52:37.578Z,-27.9
2022-10-24T06:56:41.049Z,-28.3
2022-10-24T06:58:42.346Z,-28.3
2022-10-24T07:00:43.993Z,-28.3
2022-10-24T07:02:45.251Z,-27.9
2022-10-24T07:04:46.705Z,-28
2022-10-24T07:06:47.951Z,-28.5
2022-10-24T07:08:49.251Z,-28.2
2022-10-24T07:10:50.567Z,-28.4
2022-10-24T07:12:51.655Z,-27.9
2022-10-24T07:14:53.286Z,-28.2
2022-10-24T07:16:54.499Z,-28.1
2022-10-24T07:18:55.701Z,-28
2022-10-24T07:20:57.434Z,-28.2
2022-10-24T07:22:58.427Z,-27.4
2022-10-24T07:24:59.491Z,-22.7
2022-10-24T07:27:00.425Z,-16
2022-10-24T07:31:02.460Z,-17.7
2022-10-24T07:33:03.664Z,-20.2
2022-10-24T07:35:05.367Z,-25.8
2022-10-24T07:37:06.528Z,-27.8
2022-10-24T07:39:08.322Z,-28.3
2022-10-24T07:41:09.792Z,-28.5
2022-10-24T07:43:11.039Z,-28.3
2022-10-24T07:45:12.634Z,-27.9
2022-10-24T07:49:15.704Z,-28
2022-10-24T07:51:17.617Z,-28
2022-10-24T07:55:20.109Z,-28
2022-10-24T07:57:21.710Z,-28
2022-10-24T07:59:37.476Z,-27.9
2022-10-24T08:07:27.512Z,-28.2
2022-10-24T08:09:28.503Z,-28.1
2022-10-24T08:11:30.249Z,-27.9
2022-10-24T08:13:32.079Z,-28.3
2022-10-24T08:15:33.549Z,-28.2
2022-10-24T08:19:37.195Z,-26.4
2022-10-24T08:21:38.695Z,-27.5
2022-10-24T08:23:40.409Z,-27.3
2022-10-24T08:25:41.566Z,-27.9
2022-10-24T08:29:44.336Z,-26.8
2022-10-24T08:31:45.243Z,-22.3
2022-10-24T08:33:46.267Z,-21.3
2022-10-24T08:35:48.023Z,-18.7
2022-10-24T08:37:49.096Z,-16.4
2022-10-24T08:39:50.006Z,-16.6
2022-10-24T08:41:51.496Z,-15.3
2022-10-24T08:43:53.173Z,-11
2022-10-24T08:45:54.502Z,-8.2
2022-10-24T08:47:56.203Z,-5.1
2022-10-24T08:49:57.903Z,-9.3
2022-10-24T08:51:59.029Z,-12.2
2022-10-24T08:54:00.317Z,-14.1
2022-10-24T08:56:01.915Z,-16
2022-10-24T08:58:03.464Z,-18.5
2022-10-24T09:00:04.804Z,-18.79
2022-10-24T09:02:06.940Z,-17.9
2022-10-24T09:04:06.899Z,-18.6
2022-10-24T09:06:07.997Z,-18.79
2022-10-24T09:08:09.305Z,-19.7
2022-10-24T09:10:10.850Z,-20.9
2022-10-24T09:12:12.523Z,-20.9
2022-10-24T09:18:15.688Z,-26
2022-10-24T09:20:17.493Z,-24.2
2022-10-24T09:22:18.890Z,-20.29
2022-10-24T09:24:20.324Z,-11.1
2022-10-24T09:26:21.640Z,-3.6
2022-10-24T09:28:22.854Z,-1.2
2022-10-24T09:32:25.705Z,-10.1
2022-10-24T09:34:26.674Z,-16.1
2022-10-24T09:36:27.603Z,-16.4
2022-10-24T09:38:29.379Z,-6.9
2022-10-24T09:44:33.142Z,-11.4
2022-10-24T09:46:34.039Z,-16.1
2022-10-24T09:48:35.874Z,-18.1
2022-10-24T09:50:36.918Z,-19.6
2022-10-24T09:52:37.913Z,-20.9
2022-10-24T09:54:38.833Z,-21.4
2022-10-24T09:58:41.928Z,-25.2
2022-10-24T10:00:43.077Z,-26.9
2022-10-24T10:02:44.060Z,-25.3
2022-10-24T10:06:47.050Z,-24.6
2022-10-24T10:08:48.456Z,-22.8
2022-10-24T10:10:49.821Z,-22.1
2022-10-24T10:12:51.606Z,-23.2
2022-10-24T10:14:52.666Z,-21.5
2022-10-24T10:16:54.254Z,-22.2
2022-10-24T10:18:55.537Z,-20.2
2022-10-24T10:20:56.781Z,-20.29
2022-10-24T10:22:58.071Z,-20.29
2022-10-24T10:24:59.735Z,-20.29
2022-10-24T10:27:01.041Z,-17.6
2022-10-24T10:29:02.472Z,-16.6
2022-10-24T10:31:03.675Z,-9.1
2022-10-24T10:33:05.040Z,-7.9
2022-10-24T10:35:05.976Z,-8.2
2022-10-24T10:37:07.414Z,-8.89
2022-10-24T10:39:08.517Z,-15.1
2022-10-24T10:41:10.278Z,-16.9
2022-10-24T10:43:11.177Z,-18.29
2022-10-24T10:45:12.238Z,-16.1
2022-10-24T10:47:14.113Z,-17.4
2022-10-24T10:49:15.961Z,-16.29
2022-10-24T10:51:17.686Z,-15.4
2022-10-24T10:53:19.099Z,-14.4
2022-10-24T10:59:24.559Z,-7.6
2022-10-24T11:01:24.717Z,-3.7
2022-10-24T11:03:25.610Z,-3.4
2022-10-24T11:05:27.254Z,-2.09
2022-10-24T11:07:28.873Z,4.69
2022-10-24T11:09:30.524Z,6.8
2022-10-24T11:11:31.374Z,8
2022-10-24T11:13:33.807Z,6.9
2022-10-24T11:15:33.631Z,4.8
2022-10-24T11:19:36.518Z,2.6
2022-10-24T11:21:37.802Z,3
2022-10-24T11:23:38.993Z,2.9
2022-10-24T11:25:40.154Z,1.7
2022-10-24T11:29:42.503Z,-0.6
2022-10-24T11:31:43.780Z,-2.09
2022-10-24T11:33:45.340Z,-3.4
2022-10-24T11:35:46.249Z,-6.3
2022-10-24T11:39:49.395Z,-13.5
2022-10-24T11:41:50.359Z,-18
2022-10-24T11:45:53.216Z,-21
2022-10-24T11:47:55.027Z,-19.2
2022-10-24T11:49:56.133Z,-17
2022-10-24T11:51:57.345Z,-16
2022-10-24T11:53:58.190Z,-18.29
2022-10-24T11:56:00.031Z,-11.7
2022-10-24T11:58:01.181Z,-8.1
2022-10-24T12:00:02.176Z,-9.39
2022-10-24T12:02:03.194Z,-10
2022-10-24T12:04:04.689Z,-7.8
2022-10-24T12:12:10.280Z,-23.8
2022-10-24T12:14:11.315Z,-28.2
2022-10-24T12:16:13.054Z,-28.2
2022-10-24T12:18:14.815Z,-28
2022-10-24T12:20:16.131Z,-28.4
2022-10-24T12:22:17.130Z,-28
2022-10-24T12:24:18.271Z,-27.9
2022-10-24T12:26:19.692Z,-18.1
2022-10-24T12:28:21.235Z,-6.8
2022-10-24T12:30:22.665Z,-6.5
2022-10-24T12:32:24.419Z,-7.2
2022-10-24T12:34:26.205Z,-4.6
2022-10-24T12:38:29.092Z,-4.5
2022-10-24T12:40:30.847Z,-4.9
2022-10-24T12:42:32.182Z,-7.2
2022-10-24T12:44:33.573Z,-8.7
2022-10-24T12:46:34.804Z,-11.1
2022-10-24T12:48:36.407Z,-12.1
2022-10-24T12:51:21.485Z,-12.6
2022-10-24T12:55:24.011Z,-17.1
2022-10-24T12:57:25.223Z,-20.29
2022-10-24T12:59:26.644Z,-22.3
2022-10-24T13:01:28.555Z,-24.6
2022-10-24T13:05:30.790Z,-25.5
2022-10-24T13:07:32.530Z,-25.2
2022-10-24T13:09:34.265Z,-22.8
2022-10-24T13:11:35.890Z,-24.4
2022-10-24T13:17:40.570Z,-10.6
2022-10-24T13:19:41.751Z,-7.3
2022-10-24T13:21:44.106Z,-6.3
2022-10-24T13:25:45.603Z,-4.8
2022-10-24T13:27:47.422Z,-1.9
2022-10-24T13:31:50.320Z,6.3
2022-10-24T13:33:52.126Z,13.6
2022-10-24T13:37:57.772Z,28.9
2022-10-24T13:43:59.687Z,25.2
2022-10-24T13:46:00.756Z,38.9
2022-10-24T13:48:02.092Z,26.2
2022-10-24T13:50:03.914Z,59.4
2022-10-24T13:52:05.034Z,82
2022-10-24T13:56:07.000Z,80.9
2022-10-24T13:58:07.833Z,80.6
2022-10-24T14:00:09.006Z,80.1
2022-10-24T14:02:10.508Z,79.3
2022-10-24T14:04:12.285Z,78.6
2022-10-24T14:06:13.925Z,78.1
2022-10-24T14:08:15.532Z,77.6
2022-10-24T14:10:16.458Z,77
2022-10-24T14:12:17.605Z,76.8
2022-10-24T14:14:18.493Z,75.9
2022-10-24T14:16:19.816Z,2.7
2022-10-24T14:18:21.439Z,-5.7
2022-10-24T14:20:23.251Z,-7.8
2022-10-24T14:22:24.341Z,-8.5
2022-10-24T14:24:25.547Z,-9.5
2022-10-24T14:26:27.112Z,-13
2022-10-24T14:28:28.215Z,-12.6
2022-10-24T14:30:33.454Z,-10.7
2022-10-24T14:32:30.221Z,-7.7
2022-10-24T14:34:36.056Z,-3.5
2022-10-24T14:36:33.469Z,15.6
2022-10-24T14:38:34.586Z,-8.2
2022-10-24T14:40:36.198Z,-16.5
2022-10-24T14:42:37.359Z,-16.9
2022-10-24T14:44:38.967Z,-17.7
2022-10-24T14:46:40.699Z,-19.9
2022-10-24T14:48:42.180Z,-22.3
2022-10-24T14:50:43.004Z,-23.7
2022-10-24T14:52:44.040Z,-25.5
2022-10-24T14:58:47.983Z,-27.1
2022-10-24T15:00:49.336Z,-28.2
2022-10-24T15:02:50.646Z,-26.9
2022-10-24T15:04:51.703Z,-28.2
2022-10-24T15:06:53.498Z,-28.3
2022-10-24T15:08:54.790Z,-28.2
2022-10-24T15:10:56.113Z,-28.2
2022-10-24T15:12:57.709Z,-28
2022-10-24T15:17:00.470Z,-27.8
2022-10-24T15:19:01.719Z,-28.5
2022-10-24T15:21:03.215Z,-14.3
2022-10-24T15:23:04.261Z,29.6
2022-10-24T15:25:05.972Z,32.2
2022-10-24T15:27:07.121Z,29.8
2022-10-24T15:29:08.587Z,25.5
2022-10-24T15:31:09.728Z,2.09
2022-10-24T15:35:12.103Z,-17.4
2022-10-24T15:37:13.154Z,-24.8
2022-10-24T15:39:14.340Z,-28.2
2022-10-24T15:41:15.461Z,-28.4
2022-10-24T15:43:16.647Z,-28
2022-10-24T15:45:17.943Z,-28.4
2022-10-24T15:47:19.402Z,-28.2
2022-10-24T15:49:20.774Z,-28.5
2022-10-24T15:51:21.932Z,-28.4
2022-10-24T15:53:23.518Z,-28.4
2022-10-24T15:55:24.839Z,-28.3
2022-10-24T15:57:26.620Z,-27.9
2022-10-24T15:59:28.095Z,-28.3
2022-10-24T16:01:29.477Z,-28.2
2022-10-24T16:03:30.773Z,-28.3
2022-10-24T16:05:31.842Z,-28.4
2022-10-24T16:07:33.319Z,-28.4
2022-10-24T16:09:34.562Z,-27.9
2022-10-24T16:11:35.558Z,-28.4
2022-10-24T16:13:36.547Z,-28.2
2022-10-24T16:17:38.899Z,-28.3
2022-10-24T16:19:39.978Z,-28.6
2022-10-24T16:21:41.386Z,-28.2
2022-10-24T16:23:42.811Z,-28.4
2022-10-24T16:25:44.552Z,-28.2
2022-10-24T16:27:46.237Z,-28.3
2022-10-24T16:29:47.312Z,-28.3
2022-10-24T16:31:48.475Z,-27.9
2022-10-24T16:33:49.899Z,-28
2022-10-24T16:39:55.095Z,-28.3
2022-10-24T16:41:56.275Z,-28.2
2022-10-24T16:43:58.030Z,-28
2022-10-24T16:45:59.366Z,-28.1
2022-10-24T16:48:00.699Z,-28.4
2022-10-24T16:50:01.624Z,-28.4
2022-10-24T16:54:04.112Z,-27.9
2022-10-24T16:56:05.168Z,-28
2022-10-24T16:58:06.589Z,-28
2022-10-24T17:00:07.623Z,-28.3
2022-10-24T17:02:09.120Z,-28.1
2022-10-24T17:04:10.194Z,-28.3
2022-10-24T17:06:11.222Z,-28.3
2022-10-24T17:08:12.690Z,-28.2
2022-10-24T17:10:13.793Z,-28
2022-10-24T17:12:15.692Z,-28.6
2022-10-24T17:14:16.767Z,-28.3
2022-10-24T17:16:18.398Z,-28.3
2022-10-24T17:18:19.372Z,-28
2022-10-24T17:20:20.761Z,-28.2
2022-10-24T17:22:22.550Z,-28.3
2022-10-24T17:24:24.221Z,-28.2
2022-10-24T17:26:25.960Z,-28
2022-10-24T17:28:30.846Z,-27.9
2022-10-24T17:30:29.095Z,-28.7
2022-10-24T17:32:30.357Z,-28.4
2022-10-24T17:34:32.101Z,-28.3
2022-10-24T17:36:33.179Z,-28.2
2022-10-24T17:38:34.494Z,-28.2
2022-10-24T17:40:35.689Z,-28.4
2022-10-24T17:42:36.921Z,-28.4
2022-10-24T17:44:38.671Z,-28
2022-10-24T17:46:40.482Z,-28.2
2022-10-24T17:48:42.165Z,-28.3
2022-10-24T17:50:43.976Z,-28.2
2022-10-24T17:52:45.883Z,-28.3
2022-10-24T17:54:46.811Z,-28.4
2022-10-24T17:56:47.779Z,-28.1
2022-10-24T17:58:49.498Z,-28.4
2022-10-24T18:02:51.379Z,-28.3
2022-10-24T18:04:52.362Z,-28.3
2022-10-24T18:06:53.633Z,-28.2
2022-10-24T18:08:55.233Z,-28.3
2022-10-24T18:10:57.065Z,-28.2
2022-10-24T18:14:59.112Z,-28.2
2022-10-24T18:17:00.295Z,-28.3
2022-10-24T18:19:01.384Z,-27.8
2022-10-24T18:21:03.202Z,-28.3
2022-10-24T18:23:04.284Z,-28.4
2022-10-24T18:25:05.509Z,-28.3
2022-10-24T18:27:07.155Z,-28
2022-10-24T18:29:08.892Z,-28.2
2022-10-24T18:31:09.826Z,-28.5
2022-10-24T18:33:11.548Z,-28.1
2022-10-24T18:35:12.834Z,-28.3
2022-10-24T18:37:13.870Z,-28.1
2022-10-24T18:39:15.597Z,-28.1
2022-10-24T18:41:17.198Z,-28.1
2022-10-24T18:43:18.804Z,-28.3
2022-10-24T18:45:20.133Z,-28.3
2022-10-24T18:47:23.187Z,-28.2
2022-10-24T18:49:22.529Z,-28.3
2022-10-24T18:51:23.493Z,-27.9
2022-10-24T18:53:24.476Z,-28.2
2022-10-24T18:57:26.692Z,-28.4
2022-10-24T19:03:30.916Z,-27.9
2022-10-24T19:05:32.766Z,-28.2
2022-10-24T19:07:34.291Z,-28.3
2022-10-24T19:09:35.952Z,-28
2022-10-24T19:11:37.757Z,-28.3
2022-10-24T19:13:39.028Z,-28.2
2022-10-24T19:17:42.121Z,-28.1
2022-10-24T19:19:43.287Z,-28.1
2022-10-24T19:21:45.375Z,-28.3
2022-10-24T19:23:45.246Z,-28.3
2022-10-24T19:29:49.536Z,-28.3
2022-10-24T19:33:52.729Z,-28.3
2022-10-24T19:38:39.188Z,-28.1
2022-10-24T19:40:40.564Z,-27.9
2022-10-24T19:42:41.527Z,-28.2
2022-10-24T19:44:42.491Z,-28.4
2022-10-24T19:46:43.613Z,-28.3
2022-10-24T19:48:45.473Z,-28.6
2022-10-24T19:50:47.083Z,-28.3
2022-10-24T19:52:48.715Z,-28.2
2022-10-24T19:54:50.142Z,-28.2
2022-10-24T19:56:51.850Z,-28.4
2022-10-24T19:58:53.299Z,-28.2
2022-10-24T20:00:55.182Z,-28.2
2022-10-24T20:02:56.096Z,-28.2
2022-10-24T20:04:57.142Z,-28.2
2022-10-24T20:06:58.058Z,-28.3
2022-10-24T20:11:01.053Z,-28.5
2022-10-24T20:13:02.619Z,-28.1
2022-10-24T20:15:04.054Z,-28.4
2022-10-24T20:17:05.389Z,-28.3
2022-10-24T20:23:09.003Z,-28.2
2022-10-24T20:25:10.251Z,-28.3
2022-10-24T20:27:11.195Z,-28.2
2022-10-24T20:29:12.277Z,-28.2
2022-10-24T20:31:13.172Z,-28.6
2022-10-24T20:33:14.769Z,-28
2022-10-24T20:35:15.730Z,-28.3
2022-10-24T20:37:16.702Z,-28.3
2022-10-24T20:39:17.925Z,-28.3
2022-10-24T20:41:18.890Z,-28.3
2022-10-24T20:43:20.077Z,-28.3
2022-10-24T20:45:22.788Z,-28.5
2022-10-24T20:47:22.698Z,-28.3
2022-10-24T20:49:23.943Z,-28.2
2022-10-24T20:53:26.762Z,-28.4
2022-10-24T20:55:32.221Z,-28.3
2022-10-24T20:59:31.111Z,-28.2
2022-10-24T21:03:33.994Z,-28.3
2022-10-24T21:05:35.094Z,-28.3
2022-10-24T21:09:38.611Z,-28.3
2022-10-24T21:11:40.377Z,-28.1
2022-10-24T21:13:41.408Z,-28.5
2022-10-24T21:15:42.514Z,-28
2022-10-24T21:19:45.138Z,-28.1
2022-10-24T21:21:46.811Z,-28.3
2022-10-24T21:23:48.375Z,-28.2
2022-10-24T21:25:49.879Z,-28
2022-10-24T21:29:52.741Z,-28.2
2022-10-24T21:31:53.696Z,-28.2
2022-10-24T21:37:57.175Z,-28.3
2022-10-24T21:39:58.690Z,-28.3
2022-10-24T21:42:00.185Z,-28.4
2022-10-24T21:44:01.248Z,-28.2
2022-10-24T21:48:03.998Z,-28.4
2022-10-24T21:52:06.925Z,-28.2
2022-10-24T21:54:08.470Z,-28.2
2022-10-24T21:56:09.999Z,-28.2
2022-10-24T21:58:11.745Z,-28.3
2022-10-24T22:02:14.186Z,-28.2
2022-10-24T22:04:15.269Z,-28.2
2022-10-24T22:06:16.974Z,-28.4
2022-10-24T22:08:18.098Z,-28.4
2022-10-24T22:10:19.455Z,-28.3
2022-10-24T22:12:20.487Z,-28.5
2022-10-24T22:14:21.884Z,-28.1
2022-10-24T22:18:24.674Z,-28.2
2022-10-24T22:20:26.560Z,-28.3
2022-10-24T22:22:28.069Z,-28.2
2022-10-24T22:24:29.529Z,-28.5
2022-10-24T22:26:31.103Z,-28.3
2022-10-24T22:28:32.042Z,-28.3
2022-10-24T22:30:32.996Z,-28.3
2022-10-24T22:32:34.221Z,-28.1
2022-10-24T22:34:35.290Z,-28.3
2022-10-24T22:36:37.081Z,-28
2022-10-24T22:40:39.353Z,-28.3
2022-10-24T22:42:40.819Z,-28
2022-10-24T22:44:42.625Z,-28
2022-10-24T22:46:43.769Z,-28.1
2022-10-24T22:50:46.450Z,-27.8
2022-10-24T22:52:48.226Z,-28.3
2022-10-24T22:54:49.145Z,-28.3
2022-10-24T22:56:50.621Z,-28.1
2022-10-24T22:58:52.554Z,-28.3
2022-10-24T23:00:53.814Z,-27.9
2022-10-24T23:02:55.058Z,-28
2022-10-24T23:04:56.917Z,-28.3
2022-10-24T23:06:57.839Z,-28.3
2022-10-24T23:08:59.225Z,-28.1
2022-10-24T23:11:00.701Z,-28.3
2022-10-24T23:13:02.165Z,-28
2022-10-24T23:17:04.682Z,-28.3
2022-10-24T23:19:06.023Z,-28.2
2022-10-24T23:21:07.528Z,-28.3
2022-10-24T23:23:16.635Z,-28
2022-10-24T23:29:14.361Z,-28.4
2022-10-24T23:31:16.188Z,-28.3
2022-10-24T23:33:17.955Z,-28.1
2022-10-24T23:35:19.122Z,-28.3
2022-10-24T23:37:20.024Z,-28.3
2022-10-24T23:41:22.576Z,-28
2022-10-24T23:43:23.857Z,-28.3
2022-10-24T23:45:25.585Z,-28.3
2022-10-24T23:47:26.654Z,-28
2022-10-24T23:49:28.116Z,-28.2
2022-10-24T23:51:29.903Z,-28
2022-10-24T23:53:31.584Z,-28.4
2022-10-24T23:55:33.198Z,-28
2022-10-24T23:57:34.125Z,-28.3
2022-10-24T23:59:35.545Z,-28
